logo
Search for airport 
image banner adimage banner adimage banner ad
image banner ad

EPOM - Michalkow K/Ostrowa Wlkp.

Located in , Poland

ICAO - EPOM, IATA -

Data provided by Airmate  

General information

Coordinates: N51°42'9" E17°50'49"
Elevation is 476 feet MSL.
Magnetic variation is 4.0000° East
Rated:
View ratings:
[VIEW]
View others Airports in Greater Poland

Operational data

Special qualification required
Current time UTC:
Current local time:
Weather at : EPPW - Powidz ( 75 km )
TAF: TAF EPPW 122300Z 1300/1312 08010KT 9999 BKN040 TEMPO 1300/1305 08015G25KT 4000 TSRA BKN007 BKN033CB PROB30 TEMPO 1300/1302 2000 TSRA BKN003 BKN014CB BECMG 1304/1306 25012KT TEMPO 1306/1312 25015G25KT
View NOTAMs / SUP AIP / TFR affecting this airport [VIEW]
Communications frequencies: [VIEW]

Runways:

RWY identifierQFULength (ft)Width (ft)SurfaceLDA (ft)
11L113°3150869GRASS3150
29R293°3150869GRASS3150
11R113°3150164GRASS3150
29L293°3150164GRASS3150

Airport contact information

Address: Poland

Other aviation service providers

Aviation club (not for profit)

Aeroklub Ostrowski

Aeroklub Ostrowski
dyrektor@michalkow.pl+48793474312
+48793474312

Satellite view of EPOM